Cedar City Regional Airport
KCDC : now visible

Airfield :











YOU CAN JOIN US ON...

 
LOGIN :

Register | Disclaimer

   EN    FR    IT 

 









Legend :    VFR   Marginal VFR   IFR   Intensive IFR   Very Intensive IFR
Visi :
Ceiling :
>= 8 km
>= 3000ft
5 to 8 km
1000 to 3000 ft
1500m to 5 km
500 to 1000 ft
800 to 1500m
200 to 500 ft
< 800m
< 200 ft
Symbols :   Thunderstorms  Fog  Heavy snow  Heavy precipitations  Wind > 20 kt






- Airport Elevation : 5622 ft
- IATA code : CDC


KCDC - Cedar City Regional

CURRENT METAR :
  • 060053Z AUTO 20014G23KT 10SM FEW070 14/M02 A2973 RMK AO2 PK WND 21029/0011 SLP024 T01441022

EXPIRED METARs :
  • 052353Z AUTO 19020G29KT 10SM FEW070 16/M02 A2972 RMK AO2 PK WND 21033/2312 SLP018 T01561017 10172 20144 56013
  • 052253Z AUTO 21020G29KT 10SM SCT070 16/M03 A2973 RMK AO2 PK WND 18035/2238 SLP020 T01611028

TAF KCDC
Valid from the 06 at 00:00 until the 07 at 00:00 UTC


052341Z 0600/0624 20020G30KT P6SM SCT070
FM060300 20012G20KT P6SM FEW100
FM061100 20015G25KT P6SM VCSH SCT100
FM062200 21020G30KT P6SM VCSH BKN070



MET'MAP, your aeronautical weather chart ! - Copyright ORBIFLY December 2007 - Disclaimer

ORBIFLY MET'MAP TEAM :

Programming & Development : Alexandra Zaïnal
Concept & original design : Baudouin d'Aumeries
Assistance for programming : Marc-Olivier Méhu
Technical & hardware support : Manuel Goepfert

Contact : metmap@orbifly.com




SOURCES & CREDITS :

   NOAA       Earth
Advisory